createdAt,value
2023-03-27T00:01:15.214Z,7.33
2023-03-27T00:04:22.734Z,7.31
2023-03-27T00:07:28.652Z,7.30
2023-03-27T00:10:42.500Z,7.30
2023-03-27T00:13:51.173Z,7.27
2023-03-27T00:17:00.544Z,7.25
2023-03-27T00:20:08.743Z,7.31
2023-03-27T00:23:15.826Z,7.31
2023-03-27T00:26:24.706Z,7.27
2023-03-27T00:29:31.620Z,7.30
2023-03-27T00:32:37.704Z,7.29
2023-03-27T00:35:50.153Z,7.29
2023-03-27T00:38:55.962Z,7.28
2023-03-27T00:42:05.290Z,7.36
2023-03-27T00:45:21.059Z,7.37
2023-03-27T00:48:29.893Z,7.37
2023-03-27T00:51:39.235Z,7.37
2023-03-27T00:54:49.193Z,7.38
2023-03-27T00:58:08.268Z,7.38
2023-03-27T01:01:19.629Z,7.26
2023-03-27T01:04:26.289Z,7.36
2023-03-27T01:07:34.375Z,7.41
2023-03-27T01:11:02.274Z,7.42
2023-03-27T01:14:30.407Z,7.45
2023-03-27T01:18:02.661Z,7.44
2023-03-27T01:22:09.718Z,7.43
2023-03-27T01:26:14.374Z,7.42
2023-03-27T01:29:42.340Z,7.39
2023-03-27T01:33:41.811Z,7.30
2023-03-27T01:37:22.189Z,7.26
2023-03-27T01:40:39.958Z,7.17
2023-03-27T01:43:59.762Z,7.13
2023-03-27T01:47:19.856Z,7.06
2023-03-27T01:50:37.058Z,7.02
2023-03-27T01:53:53.167Z,6.96
2023-03-27T01:57:09.620Z,6.93
2023-03-27T02:00:24.370Z,6.87
2023-03-27T02:03:52.079Z,6.98
2023-03-27T02:07:08.099Z,7.02
2023-03-27T02:10:23.143Z,7.00
2023-03-27T02:13:42.683Z,6.82
2023-03-27T02:16:58.773Z,6.71
2023-03-27T02:20:16.581Z,6.55
2023-03-27T02:23:23.258Z,6.46
2023-03-27T02:26:29.882Z,6.33
2023-03-27T02:30:03.931Z,6.25
2023-03-27T02:33:30.532Z,6.14
2023-03-27T02:36:55.305Z,6.08
2023-03-27T02:40:27.894Z,5.70
2023-03-27T02:43:57.836Z,6.03
2023-03-27T02:47:41.543Z,6.04
2023-03-27T02:50:55.567Z,6.03
2023-03-27T02:54:12.210Z,6.11
2023-03-27T02:57:28.059Z,6.02
2023-03-27T03:01:27.007Z,6.12
2023-03-27T03:04:58.153Z,6.10
2023-03-27T03:08:15.054Z,6.11
2023-03-27T03:11:20.973Z,5.98
2023-03-27T03:14:36.673Z,5.97
2023-03-27T03:17:42.855Z,5.88
2023-03-27T03:20:57.054Z,5.78
2023-03-27T03:24:03.270Z,5.72
2023-03-27T03:27:10.002Z,5.68
2023-03-27T03:31:11.159Z,5.60
2023-03-27T03:34:22.867Z,5.53
2023-03-27T03:37:39.123Z,5.52
2023-03-27T03:40:49.121Z,5.51
2023-03-27T03:43:56.699Z,5.42
2023-03-27T03:47:03.620Z,5.40
2023-03-27T03:50:10.690Z,5.36
2023-03-27T03:53:23.653Z,5.14
2023-03-27T03:56:31.220Z,5.21
2023-03-27T03:59:38.085Z,5.12
2023-03-27T04:03:04.755Z,5.08
2023-03-27T04:06:14.511Z,5.07
2023-03-27T04:09:23.439Z,5.07
2023-03-27T04:13:20.041Z,4.97
2023-03-27T04:16:37.470Z,4.95
2023-03-27T04:19:54.506Z,4.93
2023-03-27T04:23:02.555Z,4.98
2023-03-27T04:26:13.421Z,4.94
2023-03-27T04:30:02.950Z,4.86
2023-03-27T04:33:30.824Z,4.90
2023-03-27T04:36:56.104Z,4.79
2023-03-27T04:40:05.768Z,4.86
2023-03-27T04:43:14.235Z,4.91
2023-03-27T04:46:21.573Z,4.90
2023-03-27T04:49:38.997Z,4.91
2023-03-27T04:52:58.984Z,4.87
2023-03-27T04:56:10.969Z,4.89
2023-03-27T04:59:23.921Z,4.82
2023-03-27T05:02:51.317Z,4.77
2023-03-27T05:06:33.264Z,4.73
2023-03-27T05:09:40.682Z,4.84
2023-03-27T05:12:49.617Z,4.84
2023-03-27T05:16:02.191Z,4.79
2023-03-27T05:19:19.694Z,4.74
2023-03-27T05:22:31.103Z,4.83
2023-03-27T05:25:59.729Z,4.81
2023-03-27T05:29:22.940Z,4.80
2023-03-27T05:32:41.086Z,4.76
2023-03-27T05:35:54.967Z,4.86
2023-03-27T05:39:02.312Z,4.90
2023-03-27T05:42:14.624Z,4.72
2023-03-27T05:45:23.443Z,4.79
2023-03-27T05:48:33.197Z,4.85
2023-03-27T05:51:47.128Z,4.94
2023-03-27T05:54:58.046Z,4.88
2023-03-27T05:58:06.546Z,4.66
2023-03-27T06:01:14.374Z,4.97
2023-03-27T06:04:24.140Z,5.03
2023-03-27T06:07:37.265Z,5.04
2023-03-27T06:10:48.930Z,4.87
2023-03-27T06:14:00.183Z,4.94
2023-03-27T06:17:23.886Z,4.87
2023-03-27T06:20:41.096Z,4.81
2023-03-27T06:23:48.170Z,4.77
2023-03-27T06:26:56.400Z,4.93
2023-03-27T06:30:04.834Z,5.00
2023-03-27T06:33:15.005Z,5.04
2023-03-27T06:36:25.614Z,4.98
2023-03-27T06:39:31.173Z,4.10
2023-03-27T06:42:38.315Z,4.98
2023-03-27T06:46:10.165Z,3.92
2023-03-27T06:49:35.337Z,5.25
2023-03-27T06:52:52.337Z,5.16
2023-03-27T06:56:18.396Z,5.14
2023-03-27T07:00:11.880Z,5.17
2023-03-27T07:03:41.158Z,5.15
2023-03-27T07:07:07.078Z,5.01
2023-03-27T07:10:21.030Z,4.94
2023-03-27T07:13:26.687Z,4.85
2023-03-27T07:16:34.018Z,4.84
2023-03-27T07:19:39.863Z,4.90
2023-03-27T07:22:51.069Z,4.79
2023-03-27T07:26:11.057Z,4.78
2023-03-27T07:30:12.548Z,4.87
2023-03-27T07:33:19.585Z,4.85
2023-03-27T07:36:26.905Z,4.85
2023-03-27T07:39:40.342Z,4.81
2023-03-27T07:42:50.116Z,4.78
2023-03-27T07:45:59.842Z,4.84
2023-03-27T07:49:09.329Z,4.78
2023-03-27T07:52:18.604Z,4.79
2023-03-27T07:55:37.192Z,4.76
2023-03-27T07:58:49.187Z,4.54
2023-03-27T08:02:01.369Z,4.46
2023-03-27T08:05:08.853Z,4.44
2023-03-27T08:08:16.491Z,4.37
2023-03-27T08:11:38.057Z,4.46
2023-03-27T08:14:48.852Z,4.31
2023-03-27T08:18:04.556Z,4.20
2023-03-27T08:21:13.654Z,4.10
2023-03-27T08:24:19.420Z,4.03
2023-03-27T08:28:13.136Z,3.78
2023-03-27T08:31:24.302Z,3.70
2023-03-27T08:34:32.915Z,3.73
2023-03-27T08:37:38.920Z,3.71
2023-03-27T08:41:05.599Z,3.68
2023-03-27T08:44:23.643Z,3.65
2023-03-27T08:47:44.745Z,3.48
2023-03-27T08:51:03.974Z,3.52
2023-03-27T08:54:19.518Z,3.56
2023-03-27T08:57:32.992Z,3.31
2023-03-27T09:00:53.212Z,3.13
2023-03-27T09:04:20.643Z,2.73
2023-03-27T09:07:43.201Z,2.34
2023-03-27T09:11:13.050Z,2.30
2023-03-27T09:14:39.428Z,2.26
2023-03-27T09:17:53.808Z,2.08
2023-03-27T09:21:15.472Z,2.10
2023-03-27T09:24:35.619Z,2.13
2023-03-27T09:28:03.733Z,2.02
2023-03-27T09:31:29.430Z,1.92
2023-03-27T09:34:37.194Z,1.84
2023-03-27T09:37:47.221Z,1.68
2023-03-27T09:41:03.814Z,1.63
2023-03-27T09:44:25.730Z,1.39
2023-03-27T09:47:43.770Z,1.38
2023-03-27T09:50:50.628Z,1.24
2023-03-27T09:54:25.206Z,1.28
2023-03-27T09:57:38.916Z,1.02
2023-03-27T10:00:46.835Z,0.82
2023-03-27T10:03:55.860Z,0.63
2023-03-27T10:07:28.157Z,0.50
2023-03-27T10:11:00.675Z,0.34
2023-03-27T10:14:31.202Z,0.52
2023-03-27T10:17:43.015Z,0.32
2023-03-27T10:20:55.311Z,-0.05
2023-03-27T10:24:08.290Z,0.14
2023-03-27T10:28:26.367Z,0.02
2023-03-27T10:31:57.105Z,-0.00
2023-03-27T10:35:29.305Z,-0.16
2023-03-27T10:39:04.122Z,-0.25
2023-03-27T10:42:23.078Z,-0.28
2023-03-27T10:45:36.676Z,-0.15
2023-03-27T10:49:02.014Z,-0.09
2023-03-27T10:52:25.302Z,-0.11
2023-03-27T10:56:15.604Z,-0.19
2023-03-27T10:59:41.435Z,-0.14
2023-03-27T11:03:15.241Z,-0.16
2023-03-27T11:06:34.640Z,-0.09
2023-03-27T11:09:59.801Z,-0.13
2023-03-27T11:13:23.418Z,-0.58
2023-03-27T11:16:42.283Z,-0.03
2023-03-27T11:20:07.674Z,0.07
2023-03-27T11:23:29.073Z,0.20
2023-03-27T11:27:06.928Z,0.20
2023-03-27T11:30:45.206Z,0.05
2023-03-27T11:34:06.432Z,-0.23
2023-03-27T11:37:29.482Z,-0.09
2023-03-27T11:40:43.475Z,0.09
2023-03-27T11:43:50.699Z,0.00
2023-03-27T11:48:05.581Z,0.17
2023-03-27T11:51:37.290Z,0.31
2023-03-27T11:55:14.649Z,0.41
2023-03-27T11:58:35.369Z,0.27
2023-03-27T12:01:56.949Z,0.29
2023-03-27T12:05:23.736Z,0.12
2023-03-27T12:09:10.639Z,0.01
2023-03-27T12:13:09.620Z,0.11
2023-03-27T12:16:44.527Z,0.09
2023-03-27T12:20:52.897Z,0.22
2023-03-27T12:24:31.699Z,-0.01
2023-03-27T12:28:24.945Z,-0.16
2023-03-27T12:32:14.742Z,0.01
2023-03-27T12:35:28.558Z,0.10
2023-03-27T12:38:41.465Z,0.14
2023-03-27T12:41:50.070Z,0.08
2023-03-27T12:45:22.606Z,0.15
2023-03-27T12:48:32.901Z,-0.01
2023-03-27T12:51:47.873Z,0.18
2023-03-27T12:55:36.129Z,0.14
2023-03-27T12:59:35.097Z,0.12
2023-03-27T13:03:29.719Z,0.11
2023-03-27T13:06:58.430Z,0.16
2023-03-27T13:10:36.014Z,0.14
2023-03-27T13:14:29.853Z,0.14
2023-03-27T13:18:18.297Z,0.12
2023-03-27T13:21:49.843Z,0.14
2023-03-27T13:25:53.763Z,0.15
2023-03-27T13:29:01.965Z,0.20
2023-03-27T13:32:39.097Z,0.04
2023-03-27T13:36:10.796Z,-0.01
2023-03-27T13:39:28.436Z,-0.02
2023-03-27T13:42:50.103Z,-0.13
2023-03-27T13:46:08.176Z,-0.01
2023-03-27T13:50:04.880Z,0.12
2023-03-27T13:53:38.067Z,0.07
2023-03-27T13:57:20.738Z,0.00
2023-03-27T14:01:15.386Z,0.15
2023-03-27T14:04:47.790Z,0.27
2023-03-27T14:08:38.116Z,0.22
2023-03-27T14:12:17.813Z,0.17
2023-03-27T14:16:25.102Z,0.26
2023-03-27T14:20:28.542Z,0.31
2023-03-27T14:23:52.772Z,0.19
2023-03-27T14:27:20.637Z,0.18
2023-03-27T14:30:30.861Z,0.18
2023-03-27T14:34:01.422Z,0.19
2023-03-27T14:37:36.384Z,0.33
2023-03-27T14:41:48.022Z,0.30
2023-03-27T14:45:12.986Z,0.32
2023-03-27T14:48:28.411Z,0.33
2023-03-27T14:51:42.358Z,-0.05
2023-03-27T14:54:58.486Z,0.34
2023-03-27T14:58:21.469Z,0.35
2023-03-27T15:01:35.489Z,0.33
2023-03-27T15:04:46.505Z,0.43
2023-03-27T15:07:59.830Z,0.43
2023-03-27T15:11:59.462Z,0.42
2023-03-27T15:15:25.695Z,0.42
2023-03-27T15:18:49.697Z,0.50
2023-03-27T15:22:05.167Z,0.51
2023-03-27T15:25:20.567Z,0.43
2023-03-27T15:28:37.091Z,0.39
2023-03-27T15:31:49.365Z,0.43
2023-03-27T15:35:05.627Z,0.42
2023-03-27T15:38:19.250Z,0.35
2023-03-27T15:41:46.423Z,0.38
2023-03-27T15:44:53.421Z,0.45
2023-03-27T15:48:06.965Z,0.35
2023-03-27T15:51:33.148Z,0.32
2023-03-27T15:54:39.571Z,0.42
2023-03-27T15:57:46.792Z,0.38
2023-03-27T16:00:57.175Z,0.47
2023-03-27T16:04:11.283Z,0.40
2023-03-27T16:07:26.071Z,0.65
2023-03-27T16:10:35.922Z,0.72
2023-03-27T16:13:56.722Z,0.72
2023-03-27T16:17:25.414Z,0.80
2023-03-27T16:20:43.962Z,0.57
2023-03-27T16:23:53.924Z,0.44
2023-03-27T16:26:59.838Z,0.34
2023-03-27T16:30:09.172Z,0.40
2023-03-27T16:33:18.367Z,0.40
2023-03-27T16:36:32.937Z,0.44
2023-03-27T16:39:42.671Z,0.32
2023-03-27T16:42:49.971Z,0.31
2023-03-27T16:45:59.213Z,0.29
2023-03-27T16:49:06.613Z,0.17
2023-03-27T16:52:12.884Z,0.24
2023-03-27T16:55:23.071Z,0.07
2023-03-27T16:58:29.167Z,0.07
2023-03-27T17:01:36.191Z,0.10
2023-03-27T17:04:44.189Z,0.11
2023-03-27T17:07:50.915Z,0.17
2023-03-27T17:11:05.450Z,0.22
2023-03-27T17:14:12.469Z,0.29
2023-03-27T17:17:18.329Z,0.31
2023-03-27T17:20:24.977Z,0.31
2023-03-27T17:23:31.857Z,0.09
2023-03-27T17:26:42.008Z,0.17
2023-03-27T17:29:47.770Z,0.14
2023-03-27T17:32:54.879Z,0.05
2023-03-27T17:36:01.036Z,-0.15
2023-03-27T17:39:10.169Z,-0.13
2023-03-27T17:42:19.475Z,-0.33
2023-03-27T17:45:26.959Z,-0.37
2023-03-27T17:48:36.191Z,-0.24
2023-03-27T17:51:42.845Z,-0.21
2023-03-27T17:54:48.680Z,-0.20
2023-03-27T17:58:09.007Z,-0.24
2023-03-27T18:01:19.197Z,-0.23
2023-03-27T18:04:25.983Z,-0.08
2023-03-27T18:07:32.198Z,-0.04
2023-03-27T18:10:39.452Z,-0.18
2023-03-27T18:13:51.777Z,0.01
2023-03-27T18:16:58.654Z,0.04
2023-03-27T18:20:07.892Z,0.02
2023-03-27T18:23:14.686Z,0.02
2023-03-27T18:26:20.547Z,-0.07
2023-03-27T18:29:31.389Z,-0.10
2023-03-27T18:32:37.409Z,-0.05
2023-03-27T18:35:44.301Z,-0.18
2023-03-27T18:38:50.400Z,-0.20
2023-03-27T18:42:01.862Z,-0.26
2023-03-27T18:45:13.402Z,-0.32
2023-03-27T18:48:20.077Z,-0.30
2023-03-27T18:51:25.739Z,-0.39
2023-03-27T18:54:32.576Z,-0.45
2023-03-27T18:57:39.127Z,-0.50
2023-03-27T19:00:49.411Z,-0.61
2023-03-27T19:03:58.329Z,-0.60
2023-03-27T19:07:06.547Z,-0.66
2023-03-27T19:10:14.351Z,-0.69
2023-03-27T19:13:25.854Z,-0.79
2023-03-27T19:16:37.202Z,-0.86
2023-03-27T19:20:02.506Z,-0.78
2023-03-27T19:23:22.208Z,-0.84
2023-03-27T19:26:32.043Z,-0.83
2023-03-27T19:29:37.944Z,-0.91
2023-03-27T19:32:47.364Z,-0.91
2023-03-27T19:35:56.332Z,-0.93
2023-03-27T19:39:04.729Z,-0.93
2023-03-27T19:42:10.422Z,-1.07
2023-03-27T19:45:17.274Z,-1.10
2023-03-27T19:48:28.966Z,-1.16
2023-03-27T19:51:36.310Z,-1.09
2023-03-27T19:54:42.325Z,-1.10
2023-03-27T19:57:49.354Z,-1.22
2023-03-27T20:00:57.995Z,-1.22
2023-03-27T20:04:08.266Z,-1.31
2023-03-27T20:07:14.435Z,-1.30
2023-03-27T20:10:22.320Z,-1.40
2023-03-27T20:13:28.276Z,-1.40
2023-03-27T20:16:35.052Z,-1.42
2023-03-27T20:19:46.530Z,-1.46
2023-03-27T20:22:57.934Z,-1.48
2023-03-27T20:26:03.967Z,-1.52
2023-03-27T20:29:18.377Z,-1.48
2023-03-27T20:32:24.494Z,-1.51
2023-03-27T20:35:36.955Z,-1.57
2023-03-27T20:38:43.113Z,-1.61
2023-03-27T20:41:53.518Z,-1.58
2023-03-27T20:45:00.047Z,-1.63
2023-03-27T20:48:09.186Z,-1.65
2023-03-27T20:51:25.022Z,-1.65
2023-03-27T20:54:32.444Z,-1.72
2023-03-27T20:57:38.328Z,-1.73
2023-03-27T21:00:47.137Z,-1.76
2023-03-27T21:03:54.035Z,-1.80
2023-03-27T21:07:03.583Z,-1.86
2023-03-27T21:10:10.671Z,-1.83
2023-03-27T21:13:17.702Z,-1.85
2023-03-27T21:16:23.679Z,-1.85
2023-03-27T21:19:30.628Z,-1.87
2023-03-27T21:22:39.269Z,-1.89
2023-03-27T21:25:46.263Z,-1.94
2023-03-27T21:28:55.722Z,-1.91
2023-03-27T21:32:02.387Z,-1.88
2023-03-27T21:35:09.102Z,-1.91
2023-03-27T21:38:20.856Z,-1.90
2023-03-27T21:41:29.183Z,-1.92
2023-03-27T21:44:36.185Z,-1.89
2023-03-27T21:47:47.661Z,-1.94
2023-03-27T21:50:54.681Z,-1.91
2023-03-27T21:54:03.274Z,-1.91
2023-03-27T21:57:10.237Z,-1.92
2023-03-27T22:00:17.730Z,-1.93
2023-03-27T22:03:24.549Z,-2.01
2023-03-27T22:06:31.123Z,-1.89
2023-03-27T22:09:40.704Z,-1.93
2023-03-27T22:12:46.539Z,-1.93
2023-03-27T22:15:53.538Z,-1.97
2023-03-27T22:19:00.242Z,-1.95
2023-03-27T22:22:07.084Z,-1.89
2023-03-27T22:25:15.906Z,-1.97
2023-03-27T22:28:22.633Z,-1.96
2023-03-27T22:31:29.912Z,-2.01
2023-03-27T22:34:37.063Z,-2.03
2023-03-27T22:37:43.420Z,-2.09
2023-03-27T22:40:53.262Z,-2.18
2023-03-27T22:43:59.220Z,-2.15
2023-03-27T22:47:05.856Z,-2.19
2023-03-27T22:50:12.916Z,-2.20
2023-03-27T22:53:19.658Z,-2.21
2023-03-27T22:56:28.542Z,-2.26
2023-03-27T22:59:35.216Z,-2.22
2023-03-27T23:02:41.602Z,-2.27
2023-03-27T23:05:51.537Z,-2.26
2023-03-27T23:08:57.380Z,-2.29
2023-03-27T23:12:07.233Z,-2.35
2023-03-27T23:15:14.244Z,-2.42
2023-03-27T23:18:24.005Z,-2.56
2023-03-27T23:21:29.704Z,-2.67
2023-03-27T23:24:36.239Z,-2.69
2023-03-27T23:27:45.001Z,-2.64
2023-03-27T23:30:59.262Z,-2.70
2023-03-27T23:34:04.907Z,-2.67
2023-03-27T23:37:11.715Z,-2.76
2023-03-27T23:40:17.501Z,-2.78
2023-03-27T23:43:29.006Z,-2.80
2023-03-27T23:46:35.538Z,-2.87
2023-03-27T23:49:43.010Z,-2.86
2023-03-27T23:52:48.821Z,-2.90
2023-03-27T23:55:56.544Z,-2.91
2023-03-27T23:59:05.138Z,-2.97
